sensor_id;sensor_type;location;lat;lon;timestamp;temperature;humidity
28438;DHT22;15667;52.376;9.708;2023-11-22T00:00:32;2.60;99.90
28438;DHT22;15667;52.376;9.708;2023-11-22T00:02:58;3.30;99.90
28438;DHT22;15667;52.376;9.708;2023-11-22T00:05:26;3.20;99.90
28438;DHT22;15667;52.376;9.708;2023-11-22T00:07:52;3.20;99.90
28438;DHT22;15667;52.376;9.708;2023-11-22T00:10:17;3.90;99.90
28438;DHT22;15667;52.376;9.708;2023-11-22T00:12:43;3.60;99.90
28438;DHT22;15667;52.376;9.708;2023-11-22T00:15:09;3.00;99.90
28438;DHT22;15667;52.376;9.708;2023-11-22T00:17:37;3.10;99.90
28438;DHT22;15667;52.376;9.708;2023-11-22T00:20:03;3.20;99.90
28438;DHT22;15667;52.376;9.708;2023-11-22T00:22:34;3.00;99.90
28438;DHT22;15667;52.376;9.708;2023-11-22T00:25:03;2.90;99.90
28438;DHT22;15667;52.376;9.708;2023-11-22T00:27:29;2.90;99.90
28438;DHT22;15667;52.376;9.708;2023-11-22T00:29:58;2.90;99.90
28438;DHT22;15667;52.376;9.708;2023-11-22T00:32:24;2.80;99.90
28438;DHT22;15667;52.376;9.708;2023-11-22T00:34:51;2.80;99.90
28438;DHT22;15667;52.376;9.708;2023-11-22T00:37:17;2.80;99.90
28438;DHT22;15667;52.376;9.708;2023-11-22T00:39:43;2.80;99.90
28438;DHT22;15667;52.376;9.708;2023-11-22T00:42:09;2.80;99.90
28438;DHT22;15667;52.376;9.708;2023-11-22T00:44:34;2.70;99.90
28438;DHT22;15667;52.376;9.708;2023-11-22T00:47:01;2.70;99.90
28438;DHT22;15667;52.376;9.708;2023-11-22T00:49:32;3.40;99.90
28438;DHT22;15667;52.376;9.708;2023-11-22T00:51:58;2.60;99.90
28438;DHT22;15667;52.376;9.708;2023-11-22T00:54:24;3.10;99.90
28438;DHT22;15667;52.376;9.708;2023-11-22T00:56:51;2.60;99.90
28438;DHT22;15667;52.376;9.708;2023-11-22T00:59:17;2.50;99.90
28438;DHT22;15667;52.376;9.708;2023-11-22T01:01:44;2.60;99.90
28438;DHT22;15667;52.376;9.708;2023-11-22T01:04:10;2.50;99.90
28438;DHT22;15667;52.376;9.708;2023-11-22T01:06:36;2.60;99.90
28438;DHT22;15667;52.376;9.708;2023-11-22T01:09:02;2.60;99.90
28438;DHT22;15667;52.376;9.708;2023-11-22T01:11:29;2.50;99.90
28438;DHT22;15667;52.376;9.708;2023-11-22T01:13:55;2.50;99.90
28438;DHT22;15667;52.376;9.708;2023-11-22T01:16:20;2.40;99.90
28438;DHT22;15667;52.376;9.708;2023-11-22T01:18:46;2.40;99.90
28438;DHT22;15667;52.376;9.708;2023-11-22T01:21:12;2.30;99.90
28438;DHT22;15667;52.376;9.708;2023-11-22T01:23:38;2.30;99.90
28438;DHT22;15667;52.376;9.708;2023-11-22T01:26:03;2.40;99.90
28438;DHT22;15667;52.376;9.708;2023-11-22T01:28:31;2.40;99.90
28438;DHT22;15667;52.376;9.708;2023-11-22T01:31:00;2.70;99.90
28438;DHT22;15667;52.376;9.708;2023-11-22T01:33:27;2.40;99.90
28438;DHT22;15667;52.376;9.708;2023-11-22T01:35:52;2.40;99.90
28438;DHT22;15667;52.376;9.708;2023-11-22T01:38:19;2.30;99.90
28438;DHT22;15667;52.376;9.708;2023-11-22T01:40:45;2.30;99.90
28438;DHT22;15667;52.376;9.708;2023-11-22T01:43:18;2.30;99.90
28438;DHT22;15667;52.376;9.708;2023-11-22T01:45:45;2.20;99.90
28438;DHT22;15667;52.376;9.708;2023-11-22T01:48:11;2.20;99.90
28438;DHT22;15667;52.376;9.708;2023-11-22T01:50:42;2.20;99.90
28438;DHT22;15667;52.376;9.708;2023-11-22T01:53:10;2.80;99.90
28438;DHT22;15667;52.376;9.708;2023-11-22T01:55:36;2.10;99.90
28438;DHT22;15667;52.376;9.708;2023-11-22T01:58:02;2.10;99.90
28438;DHT22;15667;52.376;9.708;2023-11-22T02:00:35;2.00;99.90
28438;DHT22;15667;52.376;9.708;2023-11-22T02:03:01;2.00;99.90
28438;DHT22;15667;52.376;9.708;2023-11-22T02:05:27;2.00;99.90
28438;DHT22;15667;52.376;9.708;2023-11-22T02:07:52;2.00;99.90
28438;DHT22;15667;52.376;9.708;2023-11-22T02:10:19;2.00;99.90
28438;DHT22;15667;52.376;9.708;2023-11-22T02:12:44;1.90;99.90
28438;DHT22;15667;52.376;9.708;2023-11-22T02:15:10;2.00;99.90
28438;DHT22;15667;52.376;9.708;2023-11-22T02:17:37;1.90;99.90
28438;DHT22;15667;52.376;9.708;2023-11-22T02:20:02;1.90;99.90
28438;DHT22;15667;52.376;9.708;2023-11-22T02:22:31;1.90;99.90
28438;DHT22;15667;52.376;9.708;2023-11-22T02:24:57;2.10;99.90
28438;DHT22;15667;52.376;9.708;2023-11-22T02:27:23;2.30;99.90
28438;DHT22;15667;52.376;9.708;2023-11-22T02:29:49;2.80;99.90
28438;DHT22;15667;52.376;9.708;2023-11-22T02:32:15;3.00;99.90
28438;DHT22;15667;52.376;9.708;2023-11-22T02:34:41;1.70;99.90
28438;DHT22;15667;52.376;9.708;2023-11-22T02:37:06;1.70;99.90
28438;DHT22;15667;52.376;9.708;2023-11-22T02:42:23;1.70;99.90
28438;DHT22;15667;52.376;9.708;2023-11-22T02:44:49;1.70;99.90
28438;DHT22;15667;52.376;9.708;2023-11-22T02:47:15;1.60;99.90
28438;DHT22;15667;52.376;9.708;2023-11-22T02:49:40;1.90;99.90
28438;DHT22;15667;52.376;9.708;2023-11-22T02:52:06;1.80;99.90
28438;DHT22;15667;52.376;9.708;2023-11-22T02:54:32;1.70;99.90
28438;DHT22;15667;52.376;9.708;2023-11-22T02:56:57;1.70;99.90
28438;DHT22;15667;52.376;9.708;2023-11-22T02:59:23;2.00;99.90
28438;DHT22;15667;52.376;9.708;2023-11-22T03:01:50;1.40;99.90
28438;DHT22;15667;52.376;9.708;2023-11-22T03:04:16;1.70;99.90
28438;DHT22;15667;52.376;9.708;2023-11-22T03:06:42;2.10;99.90
28438;DHT22;15667;52.376;9.708;2023-11-22T03:09:07;1.60;99.90
28438;DHT22;15667;52.376;9.708;2023-11-22T03:11:33;1.60;99.90
28438;DHT22;15667;52.376;9.708;2023-11-22T03:13:59;1.60;99.90
28438;DHT22;15667;52.376;9.708;2023-11-22T03:16:25;1.70;99.90
28438;DHT22;15667;52.376;9.708;2023-11-22T03:18:50;1.70;99.90
28438;DHT22;15667;52.376;9.708;2023-11-22T03:21:16;1.70;99.90
28438;DHT22;15667;52.376;9.708;2023-11-22T03:23:42;1.80;99.90
28438;DHT22;15667;52.376;9.708;2023-11-22T03:26:08;1.70;99.90
28438;DHT22;15667;52.376;9.708;2023-11-22T03:28:35;1.70;99.90
28438;DHT22;15667;52.376;9.708;2023-11-22T03:31:00;1.70;99.90
28438;DHT22;15667;52.376;9.708;2023-11-22T03:33:28;1.90;99.90
28438;DHT22;15667;52.376;9.708;2023-11-22T03:35:54;1.70;99.90
28438;DHT22;15667;52.376;9.708;2023-11-22T03:38:19;1.70;99.90
28438;DHT22;15667;52.376;9.708;2023-11-22T03:40:46;1.80;99.90
28438;DHT22;15667;52.376;9.708;2023-11-22T03:43:12;1.90;99.90
28438;DHT22;15667;52.376;9.708;2023-11-22T03:45:37;1.60;99.90
28438;DHT22;15667;52.376;9.708;2023-11-22T03:48:03;1.60;99.90
28438;DHT22;15667;52.376;9.708;2023-11-22T03:50:29;1.60;99.90
28438;DHT22;15667;52.376;9.708;2023-11-22T03:52:54;1.80;99.90
28438;DHT22;15667;52.376;9.708;2023-11-22T03:55:20;1.70;99.90
28438;DHT22;15667;52.376;9.708;2023-11-22T03:57:45;1.70;99.90
28438;DHT22;15667;52.376;9.708;2023-11-22T04:00:11;1.90;99.90
28438;DHT22;15667;52.376;9.708;2023-11-22T04:02:38;1.70;99.90
28438;DHT22;15667;52.376;9.708;2023-11-22T04:05:04;1.60;99.90
28438;DHT22;15667;52.376;9.708;2023-11-22T04:07:30;1.60;99.90
28438;DHT22;15667;52.376;9.708;2023-11-22T04:09:55;1.50;99.90
28438;DHT22;15667;52.376;9.708;2023-11-22T04:12:21;1.70;99.90
28438;DHT22;15667;52.376;9.708;2023-11-22T04:14:47;1.70;99.90
28438;DHT22;15667;52.376;9.708;2023-11-22T04:17:13;1.60;99.90
28438;DHT22;15667;52.376;9.708;2023-11-22T04:19:39;1.70;99.90
28438;DHT22;15667;52.376;9.708;2023-11-22T04:22:04;1.70;99.90
28438;DHT22;15667;52.376;9.708;2023-11-22T04:24:30;1.70;99.90
28438;DHT22;15667;52.376;9.708;2023-11-22T04:26:55;2.10;99.90
28438;DHT22;15667;52.376;9.708;2023-11-22T04:29:21;2.60;99.90
28438;DHT22;15667;52.376;9.708;2023-11-22T04:31:47;2.40;99.90
28438;DHT22;15667;52.376;9.708;2023-11-22T04:34:12;1.70;99.90
28438;DHT22;15667;52.376;9.708;2023-11-22T04:36:38;1.60;99.90
28438;DHT22;15667;52.376;9.708;2023-11-22T04:39:04;1.50;99.90
28438;DHT22;15667;52.376;9.708;2023-11-22T04:41:30;1.50;99.90
28438;DHT22;15667;52.376;9.708;2023-11-22T04:43:56;1.70;99.90
28438;DHT22;15667;52.376;9.708;2023-11-22T04:46:22;1.50;99.90
28438;DHT22;15667;52.376;9.708;2023-11-22T04:48:48;1.60;99.90
28438;DHT22;15667;52.376;9.708;2023-11-22T04:51:16;1.70;99.90
28438;DHT22;15667;52.376;9.708;2023-11-22T04:53:42;1.50;99.90
28438;DHT22;15667;52.376;9.708;2023-11-22T04:56:09;1.50;99.90
28438;DHT22;15667;52.376;9.708;2023-11-22T04:58:35;1.50;99.90
28438;DHT22;15667;52.376;9.708;2023-11-22T05:01:01;1.50;99.90
28438;DHT22;15667;52.376;9.708;2023-11-22T05:03:27;1.50;99.90
28438;DHT22;15667;52.376;9.708;2023-11-22T05:05:53;1.40;99.90
28438;DHT22;15667;52.376;9.708;2023-11-22T05:08:19;1.80;99.90
28438;DHT22;15667;52.376;9.708;2023-11-22T05:10:45;1.80;99.90
28438;DHT22;15667;52.376;9.708;2023-11-22T05:13:10;1.50;99.90
28438;DHT22;15667;52.376;9.708;2023-11-22T05:15:36;1.50;99.90
28438;DHT22;15667;52.376;9.708;2023-11-22T05:18:02;1.40;99.90
28438;DHT22;15667;52.376;9.708;2023-11-22T05:20:28;1.40;99.90
28438;DHT22;15667;52.376;9.708;2023-11-22T05:22:53;1.40;99.90
28438;DHT22;15667;52.376;9.708;2023-11-22T05:25:19;1.30;99.90
28438;DHT22;15667;52.376;9.708;2023-11-22T05:27:44;1.30;99.90
28438;DHT22;15667;52.376;9.708;2023-11-22T05:30:10;1.30;99.90
28438;DHT22;15667;52.376;9.708;2023-11-22T05:32:42;1.30;99.90
28438;DHT22;15667;52.376;9.708;2023-11-22T05:35:23;1.90;99.90
28438;DHT22;15667;52.376;9.708;2023-11-22T05:37:49;1.30;99.90
28438;DHT22;15667;52.376;9.708;2023-11-22T05:40:15;1.50;99.90
28438;DHT22;15667;52.376;9.708;2023-11-22T05:42:41;1.30;99.90
28438;DHT22;15667;52.376;9.708;2023-11-22T05:45:07;1.30;99.90
28438;DHT22;15667;52.376;9.708;2023-11-22T05:47:34;1.30;99.90
28438;DHT22;15667;52.376;9.708;2023-11-22T05:49:59;1.20;99.90
28438;DHT22;15667;52.376;9.708;2023-11-22T05:52:25;1.50;99.90
28438;DHT22;15667;52.376;9.708;2023-11-22T05:54:51;1.20;99.90
28438;DHT22;15667;52.376;9.708;2023-11-22T05:57:16;1.90;99.90
28438;DHT22;15667;52.376;9.708;2023-11-22T05:59:45;1.10;99.90
28438;DHT22;15667;52.376;9.708;2023-11-22T06:02:13;1.20;99.90
28438;DHT22;15667;52.376;9.708;2023-11-22T06:04:39;1.50;99.90
28438;DHT22;15667;52.376;9.708;2023-11-22T06:07:05;1.20;99.90
28438;DHT22;15667;52.376;9.708;2023-11-22T06:09:30;1.10;99.90
28438;DHT22;15667;52.376;9.708;2023-11-22T06:11:56;1.10;99.90
28438;DHT22;15667;52.376;9.708;2023-11-22T06:14:22;1.10;99.90
28438;DHT22;15667;52.376;9.708;2023-11-22T06:16:47;1.10;99.90
28438;DHT22;15667;52.376;9.708;2023-11-22T06:19:37;1.10;99.90
28438;DHT22;15667;52.376;9.708;2023-11-22T06:29:32;1.00;99.90
28438;DHT22;15667;52.376;9.708;2023-11-22T06:32:45;1.00;99.90
28438;DHT22;15667;52.376;9.708;2023-11-22T06:40:15;1.10;99.90
28438;DHT22;15667;52.376;9.708;2023-11-22T06:42:42;1.10;99.90
28438;DHT22;15667;52.376;9.708;2023-11-22T06:45:08;2.00;99.90
28438;DHT22;15667;52.376;9.708;2023-11-22T06:47:39;1.40;99.90
28438;DHT22;15667;52.376;9.708;2023-11-22T06:50:14;1.20;99.90
28438;DHT22;15667;52.376;9.708;2023-11-22T06:53:19;1.20;99.90
28438;DHT22;15667;52.376;9.708;2023-11-22T06:55:45;1.80;99.90
28438;DHT22;15667;52.376;9.708;2023-11-22T06:58:14;1.20;99.90
28438;DHT22;15667;52.376;9.708;2023-11-22T07:00:43;1.10;99.90
28438;DHT22;15667;52.376;9.708;2023-11-22T07:03:09;1.10;99.90
28438;DHT22;15667;52.376;9.708;2023-11-22T07:05:36;1.00;99.90
28438;DHT22;15667;52.376;9.708;2023-11-22T07:08:02;1.70;99.90
28438;DHT22;15667;52.376;9.708;2023-11-22T07:10:28;1.10;99.90
28438;DHT22;15667;52.376;9.708;2023-11-22T07:12:59;0.80;99.90
28438;DHT22;15667;52.376;9.708;2023-11-22T07:15:27;1.20;99.90
28438;DHT22;15667;52.376;9.708;2023-11-22T07:17:52;1.30;99.90
28438;DHT22;15667;52.376;9.708;2023-11-22T07:20:19;1.20;99.90
28438;DHT22;15667;52.376;9.708;2023-11-22T07:22:45;1.20;99.90
28438;DHT22;15667;52.376;9.708;2023-11-22T07:25:11;1.90;99.90
28438;DHT22;15667;52.376;9.708;2023-11-22T07:27:47;1.30;99.90
28438;DHT22;15667;52.376;9.708;2023-11-22T07:30:14;1.30;99.90
28438;DHT22;15667;52.376;9.708;2023-11-22T07:32:41;1.30;99.90
28438;DHT22;15667;52.376;9.708;2023-11-22T07:35:07;1.40;99.90
28438;DHT22;15667;52.376;9.708;2023-11-22T07:37:37;1.00;99.90
28438;DHT22;15667;52.376;9.708;2023-11-22T07:40:08;1.60;99.90
28438;DHT22;15667;52.376;9.708;2023-11-22T07:42:36;1.70;99.90
28438;DHT22;15667;52.376;9.708;2023-11-22T07:45:01;1.90;99.90
28438;DHT22;15667;52.376;9.708;2023-11-22T07:47:27;1.30;99.90
28438;DHT22;15667;52.376;9.708;2023-11-22T07:49:54;2.00;99.90
28438;DHT22;15667;52.376;9.708;2023-11-22T07:52:21;1.30;99.90
28438;DHT22;15667;52.376;9.708;2023-11-22T07:54:47;3.10;99.90
28438;DHT22;15667;52.376;9.708;2023-11-22T07:57:13;1.90;99.90
28438;DHT22;15667;52.376;9.708;2023-11-22T07:59:39;2.20;99.90
28438;DHT22;15667;52.376;9.708;2023-11-22T08:02:06;2.00;99.90
28438;DHT22;15667;52.376;9.708;2023-11-22T08:04:37;2.00;99.90
28438;DHT22;15667;52.376;9.708;2023-11-22T08:07:03;2.00;99.90
28438;DHT22;15667;52.376;9.708;2023-11-22T08:09:30;2.40;99.90
28438;DHT22;15667;52.376;9.708;2023-11-22T08:11:59;3.00;99.90
28438;DHT22;15667;52.376;9.708;2023-11-22T08:14:28;2.10;99.90
28438;DHT22;15667;52.376;9.708;2023-11-22T08:16:54;2.60;99.90
28438;DHT22;15667;52.376;9.708;2023-11-22T08:19:20;2.20;99.90
28438;DHT22;15667;52.376;9.708;2023-11-22T08:21:49;1.40;99.90
28438;DHT22;15667;52.376;9.708;2023-11-22T08:24:15;2.20;99.90
28438;DHT22;15667;52.376;9.708;2023-11-22T08:26:40;2.20;99.90
28438;DHT22;15667;52.376;9.708;2023-11-22T08:29:06;2.30;99.90
28438;DHT22;15667;52.376;9.708;2023-11-22T08:31:33;2.60;99.90
28438;DHT22;15667;52.376;9.708;2023-11-22T08:34:01;2.80;99.90
28438;DHT22;15667;52.376;9.708;2023-11-22T08:36:29;2.40;99.90
28438;DHT22;15667;52.376;9.708;2023-11-22T08:38:56;2.90;99.90
28438;DHT22;15667;52.376;9.708;2023-11-22T08:41:24;2.40;99.90
28438;DHT22;15667;52.376;9.708;2023-11-22T08:43:56;2.60;99.90
28438;DHT22;15667;52.376;9.708;2023-11-22T08:46:22;2.60;99.90
28438;DHT22;15667;52.376;9.708;2023-11-22T08:48:49;2.70;99.90
28438;DHT22;15667;52.376;9.708;2023-11-22T08:51:16;2.70;99.90
28438;DHT22;15667;52.376;9.708;2023-11-22T08:53:43;2.80;99.90
28438;DHT22;15667;52.376;9.708;2023-11-22T08:56:10;3.70;99.90
28438;DHT22;15667;52.376;9.708;2023-11-22T08:58:39;2.80;99.90
28438;DHT22;15667;52.376;9.708;2023-11-22T09:01:06;3.10;99.90
28438;DHT22;15667;52.376;9.708;2023-11-22T09:03:33;3.30;99.90
28438;DHT22;15667;52.376;9.708;2023-11-22T09:05:59;3.20;99.90
28438;DHT22;15667;52.376;9.708;2023-11-22T09:08:25;3.00;99.90
28438;DHT22;15667;52.376;9.708;2023-11-22T09:10:51;3.40;99.90
28438;DHT22;15667;52.376;9.708;2023-11-22T09:13:17;2.90;99.90
28438;DHT22;15667;52.376;9.708;2023-11-22T09:15:44;3.10;99.90
28438;DHT22;15667;52.376;9.708;2023-11-22T09:18:13;2.90;99.90
28438;DHT22;15667;52.376;9.708;2023-11-22T09:20:39;2.80;99.90
28438;DHT22;15667;52.376;9.708;2023-11-22T09:23:05;2.80;99.90
28438;DHT22;15667;52.376;9.708;2023-11-22T09:25:30;2.70;99.90
28438;DHT22;15667;52.376;9.708;2023-11-22T09:27:59;2.80;99.90
28438;DHT22;15667;52.376;9.708;2023-11-22T09:30:26;3.20;99.90
28438;DHT22;15667;52.376;9.708;2023-11-22T09:33:12;2.80;99.90
28438;DHT22;15667;52.376;9.708;2023-11-22T09:35:40;2.80;99.90
28438;DHT22;15667;52.376;9.708;2023-11-22T09:38:08;2.90;99.90
28438;DHT22;15667;52.376;9.708;2023-11-22T09:40:48;2.90;99.90
28438;DHT22;15667;52.376;9.708;2023-11-22T09:43:15;2.90;99.90
28438;DHT22;15667;52.376;9.708;2023-11-22T09:45:44;2.90;99.90
28438;DHT22;15667;52.376;9.708;2023-11-22T09:48:20;3.00;99.90
28438;DHT22;15667;52.376;9.708;2023-11-22T09:56:15;2.80;99.90
28438;DHT22;15667;52.376;9.708;2023-11-22T09:58:41;2.80;99.90
28438;DHT22;15667;52.376;9.708;2023-11-22T10:01:14;2.50;99.90
28438;DHT22;15667;52.376;9.708;2023-11-22T10:03:40;2.60;99.90
28438;DHT22;15667;52.376;9.708;2023-11-22T10:06:06;2.80;99.90
28438;DHT22;15667;52.376;9.708;2023-11-22T10:08:33;2.80;99.90
28438;DHT22;15667;52.376;9.708;2023-11-22T10:10:59;2.90;99.90
28438;DHT22;15667;52.376;9.708;2023-11-22T10:13:25;2.90;96.30
28438;DHT22;15667;52.376;9.708;2023-11-22T10:15:51;3.10;84.20
28438;DHT22;15667;52.376;9.708;2023-11-22T10:18:18;2.30;56.40
28438;DHT22;15667;52.376;9.708;2023-11-22T10:20:46;2.80;58.80
28438;DHT22;15667;52.376;9.708;2023-11-22T10:23:18;3.90;68.20
28438;DHT22;15667;52.376;9.708;2023-11-22T10:25:53;2.80;94.60
28438;DHT22;15667;52.376;9.708;2023-11-22T10:28:18;3.00;53.00
28438;DHT22;15667;52.376;9.708;2023-11-22T10:30:49;3.10;64.00
28438;DHT22;15667;52.376;9.708;2023-11-22T10:33:15;3.20;23.30
28438;DHT22;15667;52.376;9.708;2023-11-22T10:35:48;3.00;21.40
28438;DHT22;15667;52.376;9.708;2023-11-22T10:38:17;3.20;43.40
28438;DHT22;15667;52.376;9.708;2023-11-22T10:40:44;3.30;27.70
28438;DHT22;15667;52.376;9.708;2023-11-22T10:43:19;3.50;41.40
28438;DHT22;15667;52.376;9.708;2023-11-22T10:45:49;4.60;35.60
28438;DHT22;15667;52.376;9.708;2023-11-22T10:48:17;3.50;15.40
28438;DHT22;15667;52.376;9.708;2023-11-22T10:50:43;4.30;18.70
28438;DHT22;15667;52.376;9.708;2023-11-22T10:53:12;4.00;16.60
28438;DHT22;15667;52.376;9.708;2023-11-22T10:55:44;4.10;1.00
28438;DHT22;15667;52.376;9.708;2023-11-22T10:58:11;3.60;1.00
28438;DHT22;15667;52.376;9.708;2023-11-22T11:00:40;3.60;1.00
28438;DHT22;15667;52.376;9.708;2023-11-22T11:03:14;3.50;1.00
28438;DHT22;15667;52.376;9.708;2023-11-22T11:05:56;3.40;1.00
28438;DHT22;15667;52.376;9.708;2023-11-22T11:08:25;3.60;3.00
28438;DHT22;15667;52.376;9.708;2023-11-22T11:10:53;3.40;1.00
28438;DHT22;15667;52.376;9.708;2023-11-22T11:13:21;3.50;1.00
28438;DHT22;15667;52.376;9.708;2023-11-22T11:15:49;3.50;1.00
28438;DHT22;15667;52.376;9.708;2023-11-22T11:18:16;4.30;1.00
28438;DHT22;15667;52.376;9.708;2023-11-22T11:23:15;3.40;1.00
28438;DHT22;15667;52.376;9.708;2023-11-22T11:25:42;3.50;1.00
28438;DHT22;15667;52.376;9.708;2023-11-22T11:28:11;3.60;1.00
28438;DHT22;15667;52.376;9.708;2023-11-22T11:30:44;3.60;1.00
28438;DHT22;15667;52.376;9.708;2023-11-22T11:33:15;3.50;1.00
28438;DHT22;15667;52.376;9.708;2023-11-22T11:35:49;3.70;1.00
28438;DHT22;15667;52.376;9.708;2023-11-22T11:38:19;3.60;1.00
28438;DHT22;15667;52.376;9.708;2023-11-22T11:40:49;4.30;1.00
28438;DHT22;15667;52.376;9.708;2023-11-22T11:46:39;3.70;1.00
28438;DHT22;15667;52.376;9.708;2023-11-22T11:49:14;3.80;1.00
28438;DHT22;15667;52.376;9.708;2023-11-22T11:51:43;3.80;1.00
28438;DHT22;15667;52.376;9.708;2023-11-22T11:54:09;4.00;1.00
28438;DHT22;15667;52.376;9.708;2023-11-22T12:25:00;3.60;1.00
28438;DHT22;15667;52.376;9.708;2023-11-22T12:27:28;3.80;1.00
28438;DHT22;15667;52.376;9.708;2023-11-22T12:29:54;3.90;1.00
28438;DHT22;15667;52.376;9.708;2023-11-22T12:32:24;3.60;1.00
28438;DHT22;15667;52.376;9.708;2023-11-22T12:34:50;3.40;1.00
28438;DHT22;15667;52.376;9.708;2023-11-22T12:37:20;4.50;1.00
28438;DHT22;15667;52.376;9.708;2023-11-22T12:39:47;3.70;1.00
28438;DHT22;15667;52.376;9.708;2023-11-22T14:09:41;3.30;1.00
28438;DHT22;15667;52.376;9.708;2023-11-22T14:12:10;3.20;1.00
28438;DHT22;15667;52.376;9.708;2023-11-22T14:14:36;3.20;1.00
28438;DHT22;15667;52.376;9.708;2023-11-22T14:17:02;3.10;1.00
28438;DHT22;15667;52.376;9.708;2023-11-22T16:41:02;3.00;1.00
28438;DHT22;15667;52.376;9.708;2023-11-22T16:43:29;3.10;1.00
28438;DHT22;15667;52.376;9.708;2023-11-22T16:45:55;2.50;1.00
28438;DHT22;15667;52.376;9.708;2023-11-22T16:48:21;3.40;1.00
28438;DHT22;15667;52.376;9.708;2023-11-22T16:50:50;3.10;1.00
28438;DHT22;15667;52.376;9.708;2023-11-22T16:53:16;3.10;1.00
28438;DHT22;15667;52.376;9.708;2023-11-22T16:55:45;3.30;1.00
28438;DHT22;15667;52.376;9.708;2023-11-22T16:58:16;3.20;1.00
28438;DHT22;15667;52.376;9.708;2023-11-22T17:00:43;3.10;1.00
28438;DHT22;15667;52.376;9.708;2023-11-22T17:03:10;3.00;1.00
28438;DHT22;15667;52.376;9.708;2023-11-22T17:05:36;3.10;1.00
28438;DHT22;15667;52.376;9.708;2023-11-22T17:08:02;3.60;1.00
28438;DHT22;15667;52.376;9.708;2023-11-22T17:10:29;3.10;1.00
28438;DHT22;15667;52.376;9.708;2023-11-22T17:13:03;3.20;1.00
28438;DHT22;15667;52.376;9.708;2023-11-22T17:15:32;3.60;1.00
28438;DHT22;15667;52.376;9.708;2023-11-22T17:17:58;3.10;1.00
28438;DHT22;15667;52.376;9.708;2023-11-22T17:20:24;3.30;1.00
28438;DHT22;15667;52.376;9.708;2023-11-22T17:22:49;3.10;1.00
28438;DHT22;15667;52.376;9.708;2023-11-22T17:25:20;3.10;1.00
28438;DHT22;15667;52.376;9.708;2023-11-22T17:27:48;3.10;1.00
28438;DHT22;15667;52.376;9.708;2023-11-22T17:30:14;3.70;1.00
28438;DHT22;15667;52.376;9.708;2023-11-22T17:32:40;3.50;1.00
28438;DHT22;15667;52.376;9.708;2023-11-22T17:35:07;3.00;1.00
28438;DHT22;15667;52.376;9.708;2023-11-22T17:37:33;3.10;1.00
28438;DHT22;15667;52.376;9.708;2023-11-22T17:39:58;2.90;1.00
28438;DHT22;15667;52.376;9.708;2023-11-22T17:42:48;3.10;1.00
28438;DHT22;15667;52.376;9.708;2023-11-22T17:48:39;3.10;1.00
28438;DHT22;15667;52.376;9.708;2023-11-22T17:51:25;3.10;1.00
28438;DHT22;15667;52.376;9.708;2023-11-22T17:53:51;3.10;1.00
28438;DHT22;15667;52.376;9.708;2023-11-22T17:56:20;3.10;1.00
28438;DHT22;15667;52.376;9.708;2023-11-22T17:58:49;3.10;1.00
28438;DHT22;15667;52.376;9.708;2023-11-22T18:01:15;3.10;1.00
28438;DHT22;15667;52.376;9.708;2023-11-22T18:04:34;3.10;1.00
28438;DHT22;15667;52.376;9.708;2023-11-22T18:09:57;3.20;1.00
28438;DHT22;15667;52.376;9.708;2023-11-22T18:12:26;3.10;1.00
28438;DHT22;15667;52.376;9.708;2023-11-22T18:15:03;3.50;1.00
28438;DHT22;15667;52.376;9.708;2023-11-22T18:17:54;2.90;1.00
28438;DHT22;15667;52.376;9.708;2023-11-22T18:20:23;3.20;1.00
28438;DHT22;15667;52.376;9.708;2023-11-22T18:29:12;3.40;1.00
28438;DHT22;15667;52.376;9.708;2023-11-22T18:31:52;3.40;1.00
28438;DHT22;15667;52.376;9.708;2023-11-22T18:35:04;3.30;1.00
28438;DHT22;15667;52.376;9.708;2023-11-22T18:37:50;3.00;1.00
28438;DHT22;15667;52.376;9.708;2023-11-22T18:40:17;3.30;1.00
28438;DHT22;15667;52.376;9.708;2023-11-22T18:43:10;3.30;1.00
28438;DHT22;15667;52.376;9.708;2023-11-22T18:45:43;3.40;1.00
